Gillette, WY

5:45 PM MST on March 02, 2015 (GMT -0700)
RAWS ECHETA WY US | Change Station
CLOSE
Current Station
Personal Weather Station
Location: Gillette, WY
Elevation: 4396 ft
Nearby Weather Stations
Active Advisory: Winter Weather Advisory

Elev 4396 ft 44.47 °N, 105.84 °W | Updated 54 minutes ago

Mostly Cloudy
Mostly Cloudy
38 °F
Feels Like 32 °F
N
9
Wind Variable Wind from NNE
Gusts 15.0 mph

Today
High -- | Low -- °F
--% Chance of Precip.
Yesterday
High -- | Low -- °F
Precip. -- in
6:38 AM 5:51 PM
Waxing Gibbous, 93% visible
Pressure 29.76 in
Visibility 10.0 miles
Clouds Clear
Windchill 32 °F
Dew Point 8 °F
Humidity 28%
Rainfall 0.00 in
Snow Depth Not available.
UV 0 out of 12
Pollen .40 out of 12
Air Quality Not available.
Flu Activity Not available.
METAR KGCC 022353Z AUTO 04007KT 10SM CLR 03/M10 A2967 RMK AO2 SLP077 T00331100 10067 20022 58012 TSNO

More Conditions Fewer Conditions

Pressure 29.76 in
Visibility 10.0 miles
Clouds Clear
Windchill 32 °F
Dew Point 8 °F
Humidity 28%
Rainfall 0.00 in
Snow Depth Not available.
UV 0 out of 12
Pollen .40 out of 12
Air Quality Not available.
Flu Activity Not available.
METAR KGCC 022353Z AUTO 04007KT 10SM CLR 03/M10 A2967 RMK AO2 SLP077 T00331100 10067 20022 58012 TSNO

More Conditions Fewer Conditions

10-Day Weather Forecast

Almanac

Astronomy

Mar. 02, 2015 Rise Set
Actual Time
Civil Twilight
Nautical Twilight
Astronomical Twilight
Moon
Length of Visible Light
Length of Day
Tomorrow will be .
, % of the Moon is Illuminated

Today's Extremes

State Highs State Lows

Community

WunderPhotos

Upload Photos

1,802,009 photos uploaded!

WunderBlogs® & News

Nearby

Air Quality

  Air Quality AQ Index Pollutant
Not available.

Snow Depth

Station Depth Elevation

Earthquake Activity

City Distance Mag. Time & Date
Minimum magnitude displayed is 2.5.

Coastal Water Temperatures

Place Temperature

Nearby Weather Stations

Winter Weather Advisory
Statement as of 1:29 PM MST on March 02, 2015

... Winter Weather Advisory remains in effect from 8 PM this
evening to 5 PM MST Tuesday...

A Winter Weather Advisory remains in effect from 8 PM this
evening to 5 PM MST Tuesday.

* Timing... this evening into Tuesday afternoon.

* Main hazard... 2 to 5 inches of snow... with the highest amounts
expected south of Interstate 90.

* Other conditions... areas of blowing and drifting snow can be
expected in open areas due to gusty northerly winds.

* Impacts... travel may be hazardous at times.

Precautionary/preparedness actions...

This Winter Weather Advisory means snow and blowing snow will
create hazardous conditions. Use caution when outdoors or
traveling.